Time;durP1;ratioP1;P1;durP2;ratioP2;P2;SDS_P1;SDS_P2;PMS_P1;PMS_P2;Temp;Humidity;BMP_temperature;BMP_pressure;BME280_temperature;BME280_humidity;BME280_pressure;Samples;Min_cycle;Max_cycle;Signal;HPM_P1;HPM_P2
2022/08/05 00:00:57;;;;;;;5.10;4.70;;;;;;;26.61;39.08;95195.09;6177813;28;103371;-70
2022/08/05 00:04:20;;;;;;;4.63;4.33;;;;;;;26.56;38.69;95189.94;6163584;28;103276;-69
2022/08/05 00:07:25;;;;;;;5.37;4.97;;;;;;;26.59;39.00;95194.63;6159397;28;104121;-70
2022/08/05 00:10:50;;;;;;;4.70;4.40;;;;;;;26.59;39.03;95183.91;6162140;28;104687;-71
2022/08/05 00:13:53;;;;;;;5.03;4.63;;;;;;;26.60;38.63;95188.16;6161637;28;104014;-70
2022/08/05 00:16:57;;;;;;;5.13;4.77;;;;;;;26.53;39.07;95183.28;6151386;28;103798;-70
2022/08/05 00:20:04;;;;;;;5.30;4.93;;;;;;;26.50;39.22;95183.19;6167835;28;103977;-70
2022/08/05 00:23:10;;;;;;;4.97;4.67;;;;;;;26.45;39.42;95183.41;6168184;28;104027;-71
2022/08/05 00:26:15;;;;;;;6.00;4.77;;;;;;;26.43;39.25;95178.38;6164538;28;103754;-69
2022/08/05 00:29:19;;;;;;;4.70;4.40;;;;;;;26.42;39.42;95173.31;6157949;28;104055;-71
2022/08/05 00:32:27;;;;;;;5.10;4.80;;;;;;;26.55;39.25;95177.63;6168302;28;106514;-69
2022/08/05 00:35:30;;;;;;;5.23;4.93;;;;;;;26.60;39.50;95171.25;6168627;28;104837;-70
2022/08/05 00:38:38;;;;;;;7.03;4.87;;;;;;;26.35;39.12;95178.44;6164185;28;104034;-69
2022/08/05 00:41:46;;;;;;;4.93;4.53;;;;;;;26.25;39.70;95179.63;6181605;28;103649;-69
2022/08/05 00:44:57;;;;;;;4.73;4.33;;;;;;;26.52;39.49;95181.72;6177688;28;103589;-70
2022/08/05 00:48:01;;;;;;;5.10;4.80;;;;;;;26.48;39.25;95188.09;6160604;28;103860;-69
2022/08/05 00:51:07;;;;;;;7.50;7.00;;;;;;;26.29;39.50;95183.22;6165358;28;103937;-68
2022/08/05 00:54:32;;;;;;;29.80;27.30;;;;;;;26.14;39.74;95173.88;6177872;28;104119;-69
2022/08/05 00:57:35;;;;;;;12.60;11.70;;;;;;;26.19;39.99;95170.97;6182886;28;103846;-70
2022/08/05 01:00:57;;;;;;;10.10;9.37;;;;;;;26.33;39.71;95180.66;6168649;28;104199;-69
2022/08/05 01:04:01;;;;;;;7.37;6.77;;;;;;;26.05;39.98;95181.22;6155047;28;103678;-68
2022/08/05 01:07:13;;;;;;;6.47;5.87;;;;;;;25.84;40.87;95172.34;6165938;28;103690;-68
2022/08/05 01:10:27;;;;;;;5.33;4.93;;;;;;;25.74;41.16;95189.59;6177495;28;103707;-73
2022/08/05 01:13:36;;;;;;;7.13;6.30;;;;;;;25.67;41.30;95178.59;6159756;28;103758;-70
2022/08/05 01:17:04;;;;;;;7.67;7.10;;;;;;;25.59;41.25;95182.13;6179382;28;103345;-70
2022/08/05 01:20:26;;;;;;;7.23;6.70;;;;;;;25.59;40.88;95171.41;6180903;28;104167;-73
2022/08/05 01:23:49;;;;;;;18.20;16.70;;;;;;;25.67;41.05;95181.28;6175104;28;103538;-72
2022/08/05 01:27:03;;;;;;;9.70;9.00;;;;;;;25.93;41.00;95181.13;6157510;28;103745;-70
2022/08/05 01:30:24;;;;;;;10.03;9.33;;;;;;;25.91;40.86;95176.09;6164174;28;103478;-71
2022/08/05 01:33:43;;;;;;;9.00;8.30;;;;;;;25.98;40.87;95175.56;6169954;28;103780;-73
2022/08/05 01:37:02;;;;;;;9.00;8.07;;;;;;;26.02;40.41;95170.34;6174536;28;103620;-73
2022/08/05 01:40:08;;;;;;;9.00;8.30;;;;;;;26.19;40.42;95180.94;6184217;28;105593;-74
2022/08/05 01:43:12;;;;;;;8.10;7.50;;;;;;;26.27;40.56;95182.78;6179926;28;104187;-71
2022/08/05 01:46:27;;;;;;;7.87;7.17;;;;;;;26.51;40.49;95195.47;6155330;28;103757;-72
2022/08/05 01:49:50;;;;;;;8.13;7.53;;;;;;;26.48;39.63;95169.31;6174258;28;103644;-71
2022/08/05 01:53:09;;;;;;;7.43;6.93;;;;;;;26.61;40.03;95186.25;6180861;28;103798;-71
2022/08/05 01:56:15;;;;;;;6.70;6.17;;;;;;;26.53;40.16;95187.88;6182548;28;103778;-73
2022/08/05 01:59:40;;;;;;;6.30;5.90;;;;;;;26.60;40.07;95187.38;6161698;28;103534;-71
2022/08/05 02:02:58;;;;;;;7.47;6.97;;;;;;;26.68;39.66;95186.50;6176887;28;104350;-73
2022/08/05 02:06:07;;;;;;;6.03;5.60;;;;;;;26.67;39.53;95185.72;6183541;28;105718;-71
2022/08/05 02:09:30;;;;;;;5.57;5.17;;;;;;;26.47;39.74;95183.84;6160271;28;103682;-71
2022/08/05 02:12:38;;;;;;;6.87;6.20;;;;;;;26.39;39.96;95192.78;6182367;28;104851;-73
2022/08/05 02:15:46;;;;;;;5.80;5.40;;;;;;;26.34;40.12;95188.38;6183771;28;103489;-72
2022/08/05 02:18:58;;;;;;;5.63;5.00;;;;;;;26.22;39.77;95173.03;6165701;28;103833;-71
2022/08/05 02:22:09;;;;;;;5.20;4.90;;;;;;;26.12;39.80;95170.75;6157825;28;103968;-70
2022/08/05 02:25:31;;;;;;;5.17;4.87;;;;;;;26.06;40.14;95160.56;6186020;28;104051;-71
2022/08/05 02:28:41;;;;;;;5.67;5.23;;;;;;;26.09;40.45;95162.56;6170706;28;103618;-71
2022/08/05 02:31:50;;;;;;;5.30;4.90;;;;;;;26.23;40.50;95184.53;6167986;28;103749;-71
2022/08/05 02:35:02;;;;;;;5.03;4.73;;;;;;;26.32;40.65;95176.41;6178369;28;103735;-72
2022/08/05 02:38:17;;;;;;;5.30;5.00;;;;;;;26.39;40.21;95174.00;6162982;28;103976;-71
2022/08/05 02:41:24;;;;;;;5.67;5.13;;;;;;;26.46;40.13;95175.00;6163583;28;103654;-72
2022/08/05 02:44:46;;;;;;;4.90;4.50;;;;;;;26.49;40.01;95173.56;6154400;28;103666;-71
2022/08/05 02:47:53;;;;;;;7.60;5.50;;;;;;;26.58;39.87;95176.97;6188385;28;107905;-69
2022/08/05 02:51:17;;;;;;;5.63;5.10;;;;;;;26.56;39.99;95168.47;6172684;28;103665;-73
2022/08/05 02:54:32;;;;;;;5.50;5.10;;;;;;;26.51;39.19;95158.69;6170995;28;104191;-71
2022/08/05 02:57:40;;;;;;;6.00;5.60;;;;;;;26.46;39.79;95174.22;6158197;28;105627;-72
2022/08/05 03:01:03;;;;;;;5.27;4.93;;;;;;;26.36;39.60;95170.03;6178668;28;103277;-71
2022/08/05 03:04:10;;;;;;;5.60;5.20;;;;;;;26.28;39.89;95170.91;6177459;28;103577;-72
2022/08/05 03:07:21;;;;;;;5.90;5.40;;;;;;;26.22;39.70;95175.72;6173667;28;103915;-71
2022/08/05 03:10:44;;;;;;;5.40;5.10;;;;;;;26.13;40.13;95177.66;6185478;28;103413;-71
2022/08/05 03:14:07;;;;;;;6.63;4.90;;;;;;;26.00;39.90;95168.00;6181830;28;103854;-73
2022/08/05 03:17:15;;;;;;;5.90;5.40;;;;;;;26.02;40.08;95179.16;6162544;28;103699;-70
2022/08/05 03:20:18;;;;;;;8.43;6.50;;;;;;;26.05;39.92;95180.44;6171367;28;103936;-68
2022/08/05 03:23:24;;;;;;;6.90;6.33;;;;;;;26.19;39.76;95178.25;6178132;28;104555;-71
2022/08/05 03:26:27;;;;;;;8.67;8.07;;;;;;;26.41;39.99;95185.97;6166430;28;103727;-73
2022/08/05 03:29:34;;;;;;;7.87;7.20;;;;;;;26.55;39.66;95183.78;6166340;28;104355;-70
2022/08/05 03:32:58;;;;;;;8.47;6.30;;;;;;;26.60;39.17;95172.03;6171063;28;104505;-75
2022/08/05 03:36:01;;;;;;;8.53;7.70;;;;;;;26.70;39.01;95177.00;6187396;28;106502;-71
2022/08/05 03:39:09;;;;;;;7.23;6.63;;;;;;;26.82;38.79;95177.03;6162713;28;103795;-72
2022/08/05 03:42:15;;;;;;;6.37;5.77;;;;;;;26.89;38.83;95183.78;6152504;28;103654;-72
2022/08/05 03:45:18;;;;;;;6.87;6.37;;;;;;;26.87;39.24;95179.50;6162510;28;103727;-71
2022/08/05 03:48:25;;;;;;;10.07;6.00;;;;;;;26.63;39.70;95178.63;6183237;28;104032;-71
2022/08/05 03:51:36;;;;;;;5.57;5.17;;;;;;;26.69;39.64;95175.44;6182633;28;107158;-69
2022/08/05 03:55:04;;;;;;;5.73;5.30;;;;;;;26.61;39.09;95180.88;6186559;28;103377;-71
2022/08/05 03:58:32;;;;;;;15.40;6.77;;;;;;;25.90;40.73;95182.56;6177821;28;103385;-72
2022/08/05 04:01:39;;;;;;;7.90;6.40;;;;;;;25.64;41.21;95182.72;6174545;28;105737;-72
2022/08/05 04:04:44;;;;;;;7.43;6.70;;;;;;;25.37;42.16;95189.34;6173446;28;104107;-71
2022/08/05 04:07:49;;;;;;;6.43;5.93;;;;;;;25.13;42.51;95182.97;6186230;28;106703;-70
2022/08/05 04:11:02;;;;;;;6.87;6.37;;;;;;;24.58;43.85;95179.16;6185617;28;103845;-71
2022/08/05 04:14:06;;;;;;;7.70;5.80;;;;;;;24.60;44.08;95174.28;6181416;28;105710;-70
2022/08/05 04:17:10;;;;;;;16.27;6.57;;;;;;;24.72;43.77;95184.38;6158948;28;106955;-70
2022/08/05 04:20:20;;;;;;;98.17;16.50;;;;;;;25.21;43.16;95185.63;6161279;28;103647;-71
2022/08/05 04:23:26;;;;;;;30.53;12.43;;;;;;;25.54;42.68;95182.31;6164390;28;104007;-72
2022/08/05 04:26:51;;;;;;;17.13;9.83;;;;;;;25.78;42.02;95179.00;6169938;28;103515;-70
2022/08/05 04:29:54;;;;;;;19.33;9.00;;;;;;;25.89;42.23;95181.00;6154223;28;104532;-71
2022/08/05 04:32:57;;;;;;;14.20;7.20;;;;;;;25.97;42.02;95177.44;6167597;28;103967;-71
2022/08/05 04:36:03;;;;;;;14.53;8.63;;;;;;;26.08;41.94;95180.56;6174087;28;107505;-71
2022/08/05 04:39:19;;;;;;;18.17;13.10;;;;;;;26.19;41.73;95181.72;6168451;28;103500;-71
2022/08/05 04:42:25;;;;;;;18.00;16.00;;;;;;;26.21;41.50;95178.69;6159701;28;104032;-71
2022/08/05 04:45:29;;;;;;;13.40;12.10;;;;;;;25.96;41.90;95183.13;6171248;28;103182;-71
2022/08/05 04:48:52;;;;;;;10.80;9.80;;;;;;;25.79;42.60;95186.72;6168244;28;103544;-72
2022/08/05 04:51:56;;;;;;;10.00;9.10;;;;;;;25.60;42.54;95170.31;6176128;28;104626;-71
2022/08/05 04:55:02;;;;;;;10.03;9.13;;;;;;;25.38;42.92;95166.03;6184101;28;103348;-71
2022/08/05 04:58:18;;;;;;;12.17;11.23;;;;;;;25.28;43.16;95166.34;6184947;28;103659;-72
2022/08/05 05:01:26;;;;;;;19.70;17.90;;;;;;;25.28;43.29;95177.06;6173466;28;105436;-74
2022/08/05 05:04:49;;;;;;;13.90;12.70;;;;;;;24.85;44.00;95175.34;6161372;28;103602;-73
2022/08/05 05:07:53;;;;;;;11.53;9.40;;;;;;;24.55;44.21;95177.13;6161696;28;105636;-73
2022/08/05 05:11:03;;;;;;;9.90;7.10;;;;;;;24.22;44.48;95168.06;6154521;28;103739;-74
2022/08/05 05:14:08;;;;;;;11.47;10.33;;;;;;;24.31;43.99;95158.91;6156326;28;105459;-72
2022/08/05 05:17:18;;;;;;;10.03;9.00;;;;;;;24.81;43.54;95178.97;6160877;28;104034;-72
2022/08/05 05:20:26;;;;;;;12.00;8.70;;;;;;;25.17;42.56;95173.16;6160205;28;103725;-73
2022/08/05 05:23:31;;;;;;;10.50;9.50;;;;;;;25.37;42.58;95173.28;6150903;28;104240;-76
2022/08/05 05:26:54;;;;;;;8.20;7.40;;;;;;;25.29;42.17;95162.56;6160402;28;103655;-74
2022/08/05 05:30:00;;;;;;;11.30;7.47;;;;;;;25.43;42.03;95168.50;6159850;28;103678;-73
2022/08/05 05:33:08;;;;;;;7.50;6.90;;;;;;;25.54;41.60;95155.50;6159810;28;103982;-72
2022/08/05 05:36:19;;;;;;;11.27;8.30;;;;;;;25.61;41.99;95172.66;6154904;28;103718;-75
2022/08/05 05:39:25;;;;;;;7.60;7.00;;;;;;;25.40;42.07;95169.16;6159952;28;104072;-73
2022/08/05 05:42:36;;;;;;;10.80;7.67;;;;;;;24.98;43.45;95177.03;6159806;28;103753;-73
2022/08/05 05:45:40;;;;;;;9.17;6.40;;;;;;;24.68;43.38;95146.72;6149273;28;103890;-71
2022/08/05 05:48:50;;;;;;;9.03;6.60;;;;;;;25.21;43.24;95179.47;6178167;28;103655;-73
2022/08/05 05:51:55;;;;;;;8.47;6.87;;;;;;;25.27;42.96;95172.81;6182871;28;103440;-72
2022/08/05 05:55:00;;;;;;;7.87;7.07;;;;;;;25.02;44.53;95169.91;6162406;28;103151;-72
2022/08/05 05:58:09;;;;;;;8.33;7.17;;;;;;;25.16;44.16;95175.06;6157861;28;103826;-71
2022/08/05 06:01:14;;;;;;;6.87;6.23;;;;;;;25.40;43.23;95177.19;6187663;28;103666;-71
2022/08/05 06:04:17;;;;;;;7.20;6.50;;;;;;;25.46;43.52;95180.47;6188029;28;103715;-73
2022/08/05 06:07:23;;;;;;;9.33;6.50;;;;;;;25.56;43.20;95178.22;6183950;28;103876;-73
2022/08/05 06:10:44;;;;;;;7.30;6.53;;;;;;;25.96;42.46;95177.78;6183723;28;103641;-72
2022/08/05 06:13:54;;;;;;;8.93;6.50;;;;;;;25.72;42.76;95183.00;6188649;28;103355;-73
2022/08/05 06:17:00;;;;;;;6.87;6.00;;;;;;;25.95;42.83;95179.69;6187542;28;104108;-72
2022/08/05 06:20:23;;;;;;;6.50;5.90;;;;;;;26.24;42.16;95181.53;6178714;28;103421;-72
2022/08/05 06:23:30;;;;;;;7.33;6.70;;;;;;;26.39;42.17;95179.34;6183326;28;103660;-72
2022/08/05 06:26:46;;;;;;;6.67;5.90;;;;;;;26.41;41.97;95187.88;6164106;28;104381;-72
2022/08/05 06:29:54;;;;;;;7.33;6.10;;;;;;;26.23;42.40;95188.00;6162644;28;103691;-72
2022/08/05 06:33:18;;;;;;;7.03;6.13;;;;;;;26.25;42.17;95187.69;6158463;28;103346;-73
2022/08/05 06:36:41;;;;;;;6.63;5.77;;;;;;;26.30;42.21;95184.00;6163265;28;103462;-72
2022/08/05 06:40:00;;;;;;;6.00;5.43;;;;;;;26.30;42.07;95184.00;6164246;28;103446;-73
2022/08/05 06:43:04;;;;;;;6.40;5.90;;;;;;;26.24;41.96;95181.53;6154353;28;103723;-72
2022/08/05 06:46:27;;;;;;;7.37;6.67;;;;;;;26.20;42.30;95180.59;6164477;28;105253;-73
2022/08/05 06:49:33;;;;;;;6.53;5.93;;;;;;;26.20;42.11;95183.28;6163132;28;103641;-70
2022/08/05 06:52:56;;;;;;;6.63;6.13;;;;;;;26.00;42.42;95170.66;6159717;28;103325;-70
2022/08/05 06:56:06;;;;;;;7.77;7.17;;;;;;;26.18;42.21;95163.25;6158290;28;103908;-70
2022/08/05 06:59:27;;;;;;;10.37;9.67;;;;;;;26.57;41.87;95172.72;6162613;28;103782;-71
2022/08/05 07:02:43;;;;;;;8.13;7.53;;;;;;;26.85;41.52;95172.91;6163303;28;103829;-72
2022/08/05 07:05:51;;;;;;;7.63;7.13;;;;;;;26.94;40.83;95162.84;6152061;28;103815;-71
2022/08/05 07:08:59;;;;;;;8.63;7.73;;;;;;;27.01;41.26;95170.34;6163300;28;103718;-72
2022/08/05 07:12:06;;;;;;;7.30;6.70;;;;;;;27.09;41.16;95170.25;6162458;28;104103;-73
2022/08/05 07:18:51;;;;;;;6.90;6.30;;;;;;;27.33;40.74;95172.19;6157880;28;103236;-69
2022/08/05 07:21:56;;;;;;;6.93;6.43;;;;;;;27.26;41.03;95171.19;6161962;28;103764;-71
2022/08/05 07:25:03;;;;;;;8.67;7.30;;;;;;;27.03;41.13;95176.16;6162351;28;103895;-72
2022/08/05 07:28:26;;;;;;;6.67;6.20;;;;;;;26.80;40.91;95165.84;6152552;28;103277;-72
2022/08/05 07:31:29;;;;;;;7.90;6.53;;;;;;;26.75;41.03;95167.97;6175957;28;103840;-70
2022/08/05 07:34:52;;;;;;;6.63;6.00;;;;;;;26.66;41.20;95168.06;6185554;28;104250;-71
2022/08/05 07:38:01;;;;;;;6.73;6.20;;;;;;;26.66;41.00;95173.41;6186520;28;103953;-69
2022/08/05 07:41:08;;;;;;;7.07;6.37;;;;;;;26.56;41.47;95157.72;6177878;28;103636;-72
2022/08/05 07:44:31;;;;;;;7.07;6.47;;;;;;;26.58;41.17;95161.63;6187312;28;103361;-70
2022/08/05 07:47:35;;;;;;;6.83;6.00;;;;;;;26.58;41.37;95163.53;6186766;28;104011;-70
2022/08/05 07:50:44;;;;;;;8.60;6.03;;;;;;;26.73;40.86;95167.53;6175053;28;104066;-71
2022/08/05 07:53:49;;;;;;;6.67;6.27;;;;;;;26.80;40.26;95157.78;6184572;28;106874;-69
2022/08/05 07:56:53;;;;;;;7.00;6.40;;;;;;;26.98;40.04;95162.97;6183771;28;104155;-71
2022/08/05 08:00:17;;;;;;;6.97;6.30;;;;;;;27.04;39.39;95164.31;6182422;28;103675;-69
2022/08/05 08:03:20;;;;;;;6.53;5.87;;;;;;;27.05;39.61;95165.88;6177389;28;103975;-72
2022/08/05 08:06:23;;;;;;;7.37;6.67;;;;;;;27.15;39.17;95168.91;6186364;28;103821;-71
2022/08/05 08:09:31;;;;;;;7.53;6.53;;;;;;;27.22;39.37;95160.31;6186500;28;104223;-77
2022/08/05 08:12:34;;;;;;;9.00;6.43;;;;;;;27.22;39.57;95154.94;6180428;28;103662;-71
2022/08/05 08:15:51;;;;;;;7.60;6.50;;;;;;;27.21;39.46;95158.72;6180998;28;103717;-73
2022/08/05 08:19:14;;;;;;;5.63;4.97;;;;;;;27.58;38.89;95162.22;6184199;28;103328;-71
2022/08/05 08:22:40;;;;;;;6.43;5.83;;;;;;;27.73;39.09;95152.69;6186682;28;103919;-70
2022/08/05 08:25:46;;;;;;;7.20;6.40;;;;;;;27.65;38.59;95154.34;6174838;28;103825;-70
2022/08/05 08:29:04;;;;;;;6.80;6.20;;;;;;;27.56;38.63;95155.63;6186029;28;103638;-69
2022/08/05 08:32:27;;;;;;;7.17;6.57;;;;;;;27.54;38.46;95150.56;6185919;28;103367;-70
2022/08/05 08:35:31;;;;;;;7.10;6.60;;;;;;;27.53;38.79;95149.00;6178617;28;103313;-70
2022/08/05 08:38:43;;;;;;;6.80;6.10;;;;;;;27.67;38.67;95151.31;6185470;28;103779;-70
2022/08/05 08:41:59;;;;;;;6.77;6.20;;;;;;;27.94;37.95;95137.19;6185518;28;103658;-69
2022/08/05 08:45:05;;;;;;;7.17;6.57;;;;;;;28.15;38.13;95138.91;6186050;28;104072;-69
2022/08/05 08:48:27;;;;;;;6.87;6.27;;;;;;;27.93;38.99;95141.00;6175857;28;103844;-70
2022/08/05 08:51:58;;;;;;;6.67;6.17;;;;;;;27.68;39.56;95142.13;6185993;28;103133;-70
2022/08/05 08:55:08;;;;;;;8.67;7.77;;;;;;;27.43;39.49;95146.78;6185521;28;104877;-70
2022/08/05 08:58:22;;;;;;;9.07;7.90;;;;;;;26.99;39.83;95132.28;6176063;28;103714;-69
2022/08/05 09:01:41;;;;;;;7.60;6.80;;;;;;;26.91;40.09;95136.66;6185213;28;103793;-71
2022/08/05 09:04:58;;;;;;;7.63;6.90;;;;;;;27.00;40.21;95128.50;6185351;28;105084;-72
2022/08/05 09:08:19;;;;;;;5.37;4.90;;;;;;;27.73;39.38;95128.47;6185172;28;104000;-70
2022/08/05 09:11:30;;;;;;;6.40;5.90;;;;;;;27.70;39.30;95127.22;6176270;28;103828;-71
2022/08/05 09:14:54;;;;;;;5.53;5.07;;;;;;;27.62;39.13;95120.09;6185831;28;103331;-70
2022/08/05 09:18:08;;;;;;;6.53;5.90;;;;;;;27.56;38.58;95096.47;6185506;28;104042;-68
2022/08/05 09:21:15;;;;;;;5.40;5.00;;;;;;;27.63;38.77;95118.19;6176194;28;103782;-71
2022/08/05 09:24:23;;;;;;;6.27;5.10;;;;;;;27.71;38.70;95106.50;6184829;28;102966;-71
2022/08/05 09:27:32;;;;;;;8.43;5.27;;;;;;;27.34;39.54;95109.25;6184991;28;104114;-71
2022/08/05 09:31:03;;;;;;;7.73;5.30;;;;;;;26.89;39.28;95095.94;6184362;28;103308;-72
2022/08/05 09:34:26;;;;;;;8.93;5.30;;;;;;;26.47;38.68;95090.69;6174963;28;103341;-70
2022/08/05 09:37:30;;;;;;;9.07;5.77;;;;;;;26.18;38.14;95094.31;6185179;28;104307;-70
2022/08/05 09:40:55;;;;;;;5.87;4.90;;;;;;;25.98;37.99;95079.78;6184556;28;103313;-69
2022/08/05 09:43:58;;;;;;;9.30;6.07;;;;;;;25.81;37.88;95089.88;6175409;28;104710;-72
2022/08/05 09:47:11;;;;;;;6.40;5.10;;;;;;;25.72;38.15;95081.16;6184626;28;103707;-69
2022/08/05 09:50:20;;;;;;;7.27;5.33;;;;;;;25.80;38.35;95078.38;6163957;28;103884;-70
2022/08/05 09:53:54;;;;;;;6.67;5.90;;;;;;;26.46;38.49;95082.97;6159941;28;103521;-69
2022/08/05 09:57:02;;;;;;;7.23;4.70;;;;;;;26.83;38.45;95070.41;6172710;28;104169;-72
2022/08/05 10:00:24;;;;;;;6.77;5.00;;;;;;;27.10;37.54;95080.47;6183256;28;104327;-71
2022/08/05 10:03:30;;;;;;;5.33;4.90;;;;;;;27.03;38.31;95063.34;6182479;28;103666;-71
2022/08/05 10:06:57;;;;;;;5.17;4.77;;;;;;;27.26;38.23;95074.47;6174683;28;103666;-70
2022/08/05 10:10:01;;;;;;;6.00;4.50;;;;;;;27.42;37.59;95062.66;6182860;28;103574;-70
2022/08/05 10:13:27;;;;;;;5.20;4.70;;;;;;;27.48;38.05;95065.91;6184361;28;103651;-72
2022/08/05 10:16:50;;;;;;;5.90;5.03;;;;;;;27.57;37.78;95060.41;6183209;28;106935;-71
2022/08/05 10:19:56;;;;;;;5.30;4.73;;;;;;;27.64;37.55;95058.69;6174526;28;104413;-70
2022/08/05 10:23:06;;;;;;;5.50;5.03;;;;;;;27.85;37.09;95058.50;6183799;28;103734;-70
2022/08/05 10:26:24;;;;;;;5.07;4.77;;;;;;;27.87;37.81;95056.25;6183515;28;103581;-70
2022/08/05 10:29:36;;;;;;;6.17;5.67;;;;;;;27.83;37.76;95049.19;6173589;28;103411;-70
2022/08/05 10:33:00;;;;;;;8.87;8.07;;;;;;;27.81;37.61;95046.84;6183181;28;103339;-70
2022/08/05 10:36:06;;;;;;;8.67;7.90;;;;;;;27.87;37.84;95050.09;6182713;28;103706;-71
2022/08/05 10:39:14;;;;;;;7.47;6.70;;;;;;;27.83;37.75;95046.50;6182447;28;103663;-70
2022/08/05 10:42:39;;;;;;;7.90;7.30;;;;;;;27.65;37.93;95046.03;6177656;28;103349;-69
2022/08/05 10:45:56;;;;;;;11.00;10.17;;;;;;;27.48;38.30;95039.00;6188561;28;103666;-70
2022/08/05 10:49:09;;;;;;;10.90;10.00;;;;;;;27.48;38.55;95035.53;6188708;28;103904;-71
2022/08/05 10:52:39;;;;;;;8.47;7.77;;;;;;;27.56;38.12;95032.72;6178462;28;104189;-71
2022/08/05 10:56:02;;;;;;;6.77;6.27;;;;;;;27.60;37.10;95030.13;6188626;28;103719;-70
2022/08/05 10:59:26;;;;;;;6.47;5.90;;;;;;;27.61;37.08;95037.09;6188276;28;103659;-70
2022/08/05 11:03:14;;;;;;;6.37;5.97;;;;;;;27.57;37.66;95020.06;6183198;28;103589;-70
2022/08/05 11:06:28;;;;;;;6.73;6.23;;;;;;;27.44;37.74;95009.34;6188118;28;103690;-70
2022/08/05 11:09:44;;;;;;;6.07;5.67;;;;;;;27.51;37.73;95021.41;6187211;28;103623;-71
2022/08/05 11:12:48;;;;;;;5.83;5.30;;;;;;;27.53;36.73;95016.47;6190947;28;103763;-71
2022/08/05 11:16:23;;;;;;;5.77;5.27;;;;;;;27.76;35.98;95012.16;6181831;28;104352;-70
2022/08/05 11:19:47;;;;;;;5.50;5.10;;;;;;;-145.53;100.00;64590.91;6266672;28;103530;-71
2022/08/05 11:23:30;;;;;;;5.90;5.50;;;;;;;-145.53;100.00;64590.91;6294892;28;20232;-70
2022/08/05 11:27:26;;;;;;;5.60;5.10;;;;;;;-145.53;100.00;64590.91;6286238;28;20481;-71
2022/08/05 11:31:22;;;;;;;5.70;5.30;;;;;;;-145.53;100.00;64590.91;6294526;28;20432;-71
2022/08/05 11:34:45;;;;;;;5.10;4.70;;;;;;;-145.53;100.00;64590.91;6295316;28;20513;-70
2022/08/05 11:38:05;;;;;;;6.30;5.80;;;;;;;-145.53;100.00;64590.91;6284395;28;20460;-71
2022/08/05 11:41:30;;;;;;;5.67;5.27;;;;;;;-145.53;100.00;64590.91;6294568;28;20477;-71
2022/08/05 11:45:01;;;;;;;5.73;5.33;;;;;;;-145.53;100.00;64590.91;6294813;28;20445;-71
2022/08/05 11:48:10;;;;;;;5.53;5.13;;;;;;;-145.53;100.00;64590.91;6290273;28;20438;-71
2022/08/05 11:51:14;;;;;;;5.30;5.00;;;;;;;-145.53;100.00;64590.91;6289419;28;20438;-70
2022/08/05 11:54:39;;;;;;;5.70;5.40;;;;;;;28.24;37.05;94992.31;6209486;28;102640;-70
2022/08/05 11:57:45;;;;;;;5.83;5.43;;;;;;;28.34;36.45;94991.00;6187255;28;105639;-72
2022/08/05 12:01:10;;;;;;;5.43;5.10;;;;;;;28.39;35.71;94984.56;6175700;28;103339;-70
2022/08/05 12:04:14;;;;;;;5.00;4.60;;;;;;;28.37;35.13;94979.53;6186198;28;103455;-70
2022/08/05 12:07:18;;;;;;;5.23;4.93;;;;;;;28.27;35.94;94983.53;6186588;28;103461;-69
2022/08/05 12:10:42;;;;;;;5.50;5.10;;;;;;;28.04;36.24;94972.56;6180735;28;103260;-70
2022/08/05 12:13:55;;;;;;;7.10;6.40;;;;;;;27.80;37.13;94966.53;6181752;28;103646;-71
2022/08/05 12:17:07;;;;;;;7.80;7.30;;;;;;;27.68;37.91;94970.81;6185462;28;103718;-70
2022/08/05 12:20:37;;;;;;;9.70;8.90;;;;;;;27.57;38.29;94969.00;6186434;28;103017;-70
2022/08/05 12:23:40;;;;;;;10.63;9.93;;;;;;;27.53;37.68;94968.09;6167755;28;103953;-71
2022/08/05 12:26:48;;;;;;;10.40;9.70;;;;;;;27.48;38.15;94965.66;6161853;28;104781;-70
2022/08/05 12:30:03;;;;;;;11.20;10.40;;;;;;;27.43;37.95;94962.09;6160959;28;103917;-70
2022/08/05 12:33:06;;;;;;;11.60;10.80;;;;;;;27.43;38.37;94948.66;6160284;28;103962;-69
2022/08/05 12:36:31;;;;;;;13.20;12.30;;;;;;;27.67;37.95;94960.41;6156209;28;103965;-71
2022/08/05 12:39:35;;;;;;;13.40;12.40;;;;;;;27.80;37.84;94959.22;6161618;28;103337;-69
2022/08/05 12:42:40;;;;;;;14.00;12.90;;;;;;;27.88;37.39;94952.94;6161189;28;103811;-70
2022/08/05 12:45:54;;;;;;;12.50;11.70;;;;;;;28.01;37.16;94950.94;6150416;28;103656;-68
2022/08/05 12:49:00;;;;;;;7.70;7.20;;;;;;;28.30;35.63;94952.44;6159914;28;103590;-71
2022/08/05 12:52:17;;;;;;;7.33;6.73;;;;;;;28.43;34.82;94945.84;6159711;28;103725;-70
2022/08/05 12:55:31;;;;;;;6.00;5.57;;;;;;;28.39;34.17;94938.78;6161717;28;103678;-70
2022/08/05 12:58:37;;;;;;;6.00;5.60;;;;;;;28.37;34.11;94936.47;6150797;28;103704;-70
2022/08/05 13:01:58;;;;;;;6.37;5.87;;;;;;;28.33;34.84;94936.38;6164505;28;103729;-73
2022/08/05 13:05:09;;;;;;;6.20;5.60;;;;;;;28.09;36.15;94946.56;6161650;28;103791;-70
2022/08/05 13:08:19;;;;;;;6.90;6.40;;;;;;;27.94;35.67;94946.19;6149806;28;103873;-70
2022/08/05 13:11:30;;;;;;;7.03;5.67;;;;;;;27.91;36.16;94943.41;6160012;28;104177;-70
2022/08/05 13:14:58;;;;;;;6.20;5.80;;;;;;;27.90;35.41;94928.41;6160265;28;103817;-69
2022/08/05 13:18:10;;;;;;;5.70;5.40;;;;;;;27.87;34.71;94921.78;6161194;28;103860;-70
2022/08/05 13:21:22;;;;;;;5.60;5.20;;;;;;;27.83;34.59;94922.78;6149781;28;104712;-69
2022/08/05 13:24:32;;;;;;;6.30;5.90;;;;;;;27.61;36.33;94916.09;6160033;28;104146;-68
2022/08/05 13:27:56;;;;;;;5.80;5.50;;;;;;;27.56;35.97;94917.13;6160162;28;103571;-69
2022/08/05 13:30:59;;;;;;;6.63;6.13;;;;;;;27.68;36.39;94916.25;6150913;28;106692;-70
2022/08/05 13:34:13;;;;;;;6.73;6.03;;;;;;;27.84;35.68;94925.13;6160823;28;103401;-71
2022/08/05 13:37:27;;;;;;;6.43;6.03;;;;;;;27.96;34.44;94910.88;6159425;28;103607;-71
2022/08/05 13:40:37;;;;;;;6.57;6.17;;;;;;;28.03;34.88;94913.72;6159603;28;103895;-69
2022/08/05 13:43:53;;;;;;;5.80;5.40;;;;;;;28.10;34.53;94907.75;6151124;28;104311;-68
2022/08/05 13:46:57;;;;;;;5.90;5.40;;;;;;;28.15;34.61;94907.47;6159821;28;103802;-71
2022/08/05 13:50:10;;;;;;;6.53;5.97;;;;;;;28.19;35.10;94908.34;6160623;28;103797;-71
2022/08/05 13:53:18;;;;;;;5.40;5.10;;;;;;;28.23;34.10;94904.63;6152184;28;103945;-68
2022/08/05 13:56:23;;;;;;;5.97;5.57;;;;;;;28.19;34.99;94905.66;6158491;28;103959;-70
2022/08/05 13:59:27;;;;;;;6.10;5.70;;;;;;;28.07;34.74;94913.84;6159167;28;103878;-69
2022/08/05 14:02:32;;;;;;;6.70;6.10;;;;;;;27.97;35.44;94894.38;6160861;28;104162;-70
2022/08/05 14:05:35;;;;;;;5.80;5.30;;;;;;;27.91;35.09;94901.16;6150365;28;104083;-71
2022/08/05 14:08:59;;;;;;;5.80;5.37;;;;;;;27.85;35.35;94894.44;6159106;28;103402;-71
2022/08/05 14:12:05;;;;;;;5.33;5.03;;;;;;;27.82;34.87;94900.50;6160019;28;103934;-71
2022/08/05 14:15:28;;;;;;;5.80;5.40;;;;;;;27.74;34.78;94883.41;6157464;28;103117;-71
2022/08/05 14:18:52;;;;;;;5.40;5.00;;;;;;;27.62;34.65;94866.56;6158925;28;103331;-70
2022/08/05 14:21:55;;;;;;;5.07;4.77;;;;;;;27.71;34.26;94883.31;6162178;28;103769;-68
2022/08/05 14:25:13;;;;;;;5.00;4.60;;;;;;;27.80;33.64;94886.63;6163111;28;103476;-70
2022/08/05 14:28:25;;;;;;;5.00;4.60;;;;;;;27.93;33.40;94882.75;6154061;28;106423;-70
2022/08/05 14:31:30;;;;;;;5.23;4.93;;;;;;;28.01;34.01;94881.78;6162996;28;103763;-71
2022/08/05 14:34:53;;;;;;;5.60;5.10;;;;;;;28.11;34.24;94882.41;6165892;28;103806;-68
2022/08/05 14:37:58;;;;;;;5.77;5.37;;;;;;;28.15;34.49;94885.97;6181714;28;103752;-70
2022/08/05 14:41:04;;;;;;;5.50;5.20;;;;;;;28.19;34.35;94886.81;6159869;28;103905;-70
2022/08/05 14:44:11;;;;;;;5.87;5.30;;;;;;;28.25;34.40;94880.06;6162462;28;103738;-70
2022/08/05 14:47:23;;;;;;;5.83;5.40;;;;;;;28.31;34.10;94876.72;6163003;28;103751;-72
2022/08/05 14:50:46;;;;;;;5.00;4.70;;;;;;;28.27;34.07;94875.88;6153082;28;103336;-71
2022/08/05 14:53:51;;;;;;;6.00;5.50;;;;;;;28.19;33.95;94867.97;6171711;28;103586;-68
2022/08/05 14:57:14;;;;;;;4.90;4.50;;;;;;;27.98;33.85;94855.59;6185658;28;103394;-71